sensor_id;sensor_type;location;lat;lon;timestamp;pressure;altitude;pressure_sealevel;temperature;humidity
57900;BME280;60605;53.716;19.940;2023-09-08T00:04:14;101370.73;;;14.71;100.00
57900;BME280;60605;53.716;19.940;2023-09-08T00:09:16;101368.77;;;14.65;100.00
57900;BME280;60605;53.716;19.940;2023-09-08T00:14:18;101361.62;;;14.59;100.00
57900;BME280;60605;53.716;19.940;2023-09-08T00:19:20;101359.30;;;14.54;100.00
57900;BME280;60605;53.716;19.940;2023-09-08T00:24:22;101359.44;;;14.47;100.00
57900;BME280;60605;53.716;19.940;2023-09-08T00:29:24;101353.41;;;14.41;100.00
57900;BME280;60605;53.716;19.940;2023-09-08T00:34:26;101351.61;;;14.37;100.00
57900;BME280;60605;53.716;19.940;2023-09-08T00:39:28;101353.55;;;14.36;100.00
57900;BME280;60605;53.716;19.940;2023-09-08T00:44:30;101354.33;;;14.33;100.00
57900;BME280;60605;53.716;19.940;2023-09-08T00:49:32;101354.32;;;14.32;100.00
57900;BME280;60605;53.716;19.940;2023-09-08T00:54:35;101352.27;;;14.32;100.00
57900;BME280;60605;53.716;19.940;2023-09-08T00:59:37;101345.70;;;14.33;100.00
57900;BME280;60605;53.716;19.940;2023-09-08T01:04:39;101340.70;;;14.35;100.00
57900;BME280;60605;53.716;19.940;2023-09-08T01:09:45;101334.98;;;14.35;100.00
57900;BME280;60605;53.716;19.940;2023-09-08T01:14:47;101333.81;;;14.32;100.00
57900;BME280;60605;53.716;19.940;2023-09-08T01:19:53;101335.04;;;14.27;100.00
57900;BME280;60605;53.716;19.940;2023-09-08T01:30:14;101319.77;;;14.19;100.00
57900;BME280;60605;53.716;19.940;2023-09-08T01:35:17;101314.45;;;14.14;100.00
57900;BME280;60605;53.716;19.940;2023-09-08T01:40:19;101315.27;;;14.10;100.00
57900;BME280;60605;53.716;19.940;2023-09-08T01:45:21;101312.21;;;14.02;100.00
57900;BME280;60605;53.716;19.940;2023-09-08T01:50:23;101314.02;;;13.93;100.00
57900;BME280;60605;53.716;19.940;2023-09-08T01:55:26;101319.63;;;13.86;100.00
57900;BME280;60605;53.716;19.940;2023-09-08T02:00:28;101325.31;;;13.79;100.00
57900;BME280;60605;53.716;19.940;2023-09-08T02:05:30;101322.99;;;13.73;100.00
57900;BME280;60605;53.716;19.940;2023-09-08T02:10:33;101320.77;;;13.70;100.00
57900;BME280;60605;53.716;19.940;2023-09-08T02:15:35;101320.19;;;13.69;100.00
57900;BME280;60605;53.716;19.940;2023-09-08T02:20:38;101318.45;;;13.64;100.00
57900;BME280;60605;53.716;19.940;2023-09-08T02:25:40;101318.48;;;13.59;100.00
57900;BME280;60605;53.716;19.940;2023-09-08T02:30:42;101314.88;;;13.51;100.00
57900;BME280;60605;53.716;19.940;2023-09-08T02:35:44;101313.99;;;13.44;100.00
57900;BME280;60605;53.716;19.940;2023-09-08T02:40:46;101311.80;;;13.37;100.00
57900;BME280;60605;53.716;19.940;2023-09-08T02:45:48;101310.11;;;13.30;100.00
57900;BME280;60605;53.716;19.940;2023-09-08T02:50:50;101307.39;;;13.25;100.00
57900;BME280;60605;53.716;19.940;2023-09-08T02:55:52;101303.27;;;13.23;100.00
57900;BME280;60605;53.716;19.940;2023-09-08T03:00:54;101298.98;;;13.22;100.00
57900;BME280;60605;53.716;19.940;2023-09-08T03:05:57;101301.69;;;13.23;100.00
57900;BME280;60605;53.716;19.940;2023-09-08T03:11:03;101296.02;;;13.20;100.00
57900;BME280;60605;53.716;19.940;2023-09-08T03:16:07;101294.47;;;13.19;100.00
57900;BME280;60605;53.716;19.940;2023-09-08T03:21:09;101289.93;;;13.20;100.00
57900;BME280;60605;53.716;19.940;2023-09-08T03:26:15;101283.75;;;13.17;100.00
57900;BME280;60605;53.716;19.940;2023-09-08T03:31:17;101283.06;;;13.11;100.00
57900;BME280;60605;53.716;19.940;2023-09-08T03:36:20;101282.39;;;13.05;100.00
57900;BME280;60605;53.716;19.940;2023-09-08T03:41:21;101282.02;;;13.01;100.00
57900;BME280;60605;53.716;19.940;2023-09-08T03:46:23;101281.14;;;12.99;100.00
57900;BME280;60605;53.716;19.940;2023-09-08T03:51:27;101286.33;;;12.95;100.00
57900;BME280;60605;53.716;19.940;2023-09-08T03:56:30;101289.66;;;12.90;100.00
57900;BME280;60605;53.716;19.940;2023-09-08T04:01:32;101289.95;;;12.85;100.00
57900;BME280;60605;53.716;19.940;2023-09-08T04:06:34;101287.64;;;12.81;100.00
57900;BME280;60605;53.716;19.940;2023-09-08T04:11:36;101287.38;;;12.80;100.00
57900;BME280;60605;53.716;19.940;2023-09-08T04:16:38;101287.73;;;12.80;100.00
57900;BME280;60605;53.716;19.940;2023-09-08T04:21:41;101294.29;;;12.83;100.00
57900;BME280;60605;53.716;19.940;2023-09-08T04:26:43;101292.36;;;12.86;100.00
57900;BME280;60605;53.716;19.940;2023-09-08T04:31:44;101291.81;;;12.90;100.00
57900;BME280;60605;53.716;19.940;2023-09-08T04:36:47;101288.71;;;13.00;100.00
57900;BME280;60605;53.716;19.940;2023-09-08T04:41:48;101285.38;;;13.19;100.00
57900;BME280;60605;53.716;19.940;2023-09-08T04:46:51;101284.23;;;13.58;100.00
57900;BME280;60605;53.716;19.940;2023-09-08T04:51:53;101286.00;;;14.33;100.00
57900;BME280;60605;53.716;19.940;2023-09-08T04:56:55;101285.33;;;15.05;100.00
57900;BME280;60605;53.716;19.940;2023-09-08T05:02:13;101287.49;;;15.45;100.00
57900;BME280;60605;53.716;19.940;2023-09-08T05:07:15;101289.37;;;15.87;100.00
57900;BME280;60605;53.716;19.940;2023-09-08T05:12:17;101286.82;;;16.92;100.00
57900;BME280;60605;53.716;19.940;2023-09-08T05:17:19;101283.57;;;18.54;100.00
57900;BME280;60605;53.716;19.940;2023-09-08T05:22:21;101283.91;;;20.23;100.00
57900;BME280;60605;53.716;19.940;2023-09-08T05:27:24;101282.96;;;21.89;97.46
57900;BME280;60605;53.716;19.940;2023-09-08T05:32:25;101291.40;;;23.33;87.76
57900;BME280;60605;53.716;19.940;2023-09-08T05:37:28;101300.30;;;24.45;79.89
57900;BME280;60605;53.716;19.940;2023-09-08T05:42:29;101299.52;;;25.20;73.59
57900;BME280;60605;53.716;19.940;2023-09-08T05:47:32;101294.43;;;26.13;70.07
57900;BME280;60605;53.716;19.940;2023-09-08T05:52:34;101293.55;;;26.78;64.86
57900;BME280;60605;53.716;19.940;2023-09-08T05:57:36;101295.92;;;27.55;62.44
57900;BME280;60605;53.716;19.940;2023-09-08T06:02:39;101298.44;;;28.28;59.22
57900;BME280;60605;53.716;19.940;2023-09-08T06:07:41;101296.41;;;28.61;56.32
57900;BME280;60605;53.716;19.940;2023-09-08T06:12:58;101294.34;;;29.04;55.07
57900;BME280;60605;53.716;19.940;2023-09-08T06:18:00;101290.57;;;29.87;53.49
57900;BME280;60605;53.716;19.940;2023-09-08T06:23:02;101287.20;;;30.91;51.09
57900;BME280;60605;53.716;19.940;2023-09-08T06:28:04;101283.58;;;31.58;49.17
57900;BME280;60605;53.716;19.940;2023-09-08T06:33:07;101285.19;;;32.53;48.18
57900;BME280;60605;53.716;19.940;2023-09-08T06:38:10;101284.90;;;33.51;45.41
57900;BME280;60605;53.716;19.940;2023-09-08T06:43:12;101274.38;;;34.42;43.71
57900;BME280;60605;53.716;19.940;2023-09-08T06:48:15;101277.64;;;35.49;42.69
57900;BME280;60605;53.716;19.940;2023-09-08T06:53:17;101281.78;;;36.50;41.67
57900;BME280;60605;53.716;19.940;2023-09-08T06:58:20;101287.67;;;37.35;40.21
57900;BME280;60605;53.716;19.940;2023-09-08T07:03:21;101286.74;;;38.44;38.85
57900;BME280;60605;53.716;19.940;2023-09-08T07:08:25;101287.70;;;39.53;37.17
57900;BME280;60605;53.716;19.940;2023-09-08T07:13:27;101288.35;;;40.67;35.06
57900;BME280;60605;53.716;19.940;2023-09-08T07:18:29;101285.23;;;41.08;33.00
57900;BME280;60605;53.716;19.940;2023-09-08T07:23:34;101284.16;;;41.47;32.39
57900;BME280;60605;53.716;19.940;2023-09-08T07:28:38;101283.61;;;41.81;31.72
57900;BME280;60605;53.716;19.940;2023-09-08T07:33:41;101285.09;;;42.52;31.31
57900;BME280;60605;53.716;19.940;2023-09-08T07:38:43;101286.71;;;43.05;29.43
57900;BME280;60605;53.716;19.940;2023-09-08T07:43:45;101282.16;;;43.45;29.31
57900;BME280;60605;53.716;19.940;2023-09-08T07:48:47;101280.13;;;43.94;28.27
57900;BME280;60605;53.716;19.940;2023-09-08T07:53:49;101279.77;;;44.33;27.09
57900;BME280;60605;53.716;19.940;2023-09-08T07:58:52;101275.09;;;44.70;26.89
57900;BME280;60605;53.716;19.940;2023-09-08T08:03:53;101274.05;;;45.09;26.36
57900;BME280;60605;53.716;19.940;2023-09-08T08:08:56;101276.41;;;45.22;26.07
57900;BME280;60605;53.716;19.940;2023-09-08T08:13:58;101270.10;;;45.45;26.12
57900;BME280;60605;53.716;19.940;2023-09-08T08:19:00;101270.84;;;45.99;25.34
57900;BME280;60605;53.716;19.940;2023-09-08T08:24:02;101268.95;;;46.39;24.81
57900;BME280;60605;53.716;19.940;2023-09-08T08:29:04;101264.85;;;46.45;24.39
57900;BME280;60605;53.716;19.940;2023-09-08T08:34:06;101261.84;;;46.68;24.56
57900;BME280;60605;53.716;19.940;2023-09-08T08:39:10;101253.70;;;46.98;24.46
57900;BME280;60605;53.716;19.940;2023-09-08T08:44:13;101250.96;;;46.99;23.52
57900;BME280;60605;53.716;19.940;2023-09-08T08:49:18;101246.84;;;46.85;23.92
57900;BME280;60605;53.716;19.940;2023-09-08T08:54:21;101239.68;;;47.02;24.28
57900;BME280;60605;53.716;19.940;2023-09-08T08:59:23;101236.23;;;47.26;23.41
57900;BME280;60605;53.716;19.940;2023-09-08T09:04:26;101232.95;;;47.40;23.65
57900;BME280;60605;53.716;19.940;2023-09-08T09:09:28;101230.17;;;47.83;23.42
57900;BME280;60605;53.716;19.940;2023-09-08T09:14:34;101227.08;;;48.29;23.22
57900;BME280;60605;53.716;19.940;2023-09-08T09:19:36;101229.06;;;48.62;22.49
57900;BME280;60605;53.716;19.940;2023-09-08T09:24:40;101224.30;;;48.60;22.11
57900;BME280;60605;53.716;19.940;2023-09-08T09:29:49;101224.41;;;48.61;21.55
57900;BME280;60605;53.716;19.940;2023-09-08T09:34:53;101221.63;;;48.66;21.36
57900;BME280;60605;53.716;19.940;2023-09-08T09:39:55;101217.18;;;48.57;20.67
57900;BME280;60605;53.716;19.940;2023-09-08T09:44:57;101211.42;;;48.17;20.34
57900;BME280;60605;53.716;19.940;2023-09-08T09:50:01;101207.45;;;47.54;20.94
57900;BME280;60605;53.716;19.940;2023-09-08T09:55:05;101202.90;;;47.09;21.81
57900;BME280;60605;53.716;19.940;2023-09-08T10:00:08;101204.15;;;47.06;22.36
57900;BME280;60605;53.716;19.940;2023-09-08T10:05:14;101198.89;;;46.96;21.96
57900;BME280;60605;53.716;19.940;2023-09-08T10:10:17;101192.49;;;46.47;22.31
57900;BME280;60605;53.716;19.940;2023-09-08T10:15:21;101185.30;;;44.80;23.60
57900;BME280;60605;53.716;19.940;2023-09-08T10:20:25;101176.61;;;42.04;26.13
57900;BME280;60605;53.716;19.940;2023-09-08T10:25:29;101168.02;;;39.52;28.30
57900;BME280;60605;53.716;19.940;2023-09-08T10:30:34;101166.39;;;37.53;30.62
57900;BME280;60605;53.716;19.940;2023-09-08T10:35:35;101158.89;;;35.87;32.99
57900;BME280;60605;53.716;19.940;2023-09-08T10:40:38;101153.06;;;34.50;35.81
57900;BME280;60605;53.716;19.940;2023-09-08T10:45:41;101152.82;;;33.45;36.70
57900;BME280;60605;53.716;19.940;2023-09-08T10:50:44;101149.88;;;32.61;38.68
57900;BME280;60605;53.716;19.940;2023-09-08T10:55:47;101145.92;;;31.88;39.89
57900;BME280;60605;53.716;19.940;2023-09-08T11:01:08;101142.22;;;31.27;41.63
57900;BME280;60605;53.716;19.940;2023-09-08T11:06:16;101137.63;;;30.75;42.77
57900;BME280;60605;53.716;19.940;2023-09-08T11:11:19;101131.16;;;30.43;43.39
57900;BME280;60605;53.716;19.940;2023-09-08T11:16:22;101128.49;;;30.25;44.48
57900;BME280;60605;53.716;19.940;2023-09-08T11:21:32;101127.34;;;30.12;44.43
57900;BME280;60605;53.716;19.940;2023-09-08T11:26:38;101124.04;;;29.97;45.19
57900;BME280;60605;53.716;19.940;2023-09-08T11:31:40;101120.27;;;29.87;45.67
57900;BME280;60605;53.716;19.940;2023-09-08T11:36:43;101115.18;;;29.77;45.00
57900;BME280;60605;53.716;19.940;2023-09-08T11:41:45;101111.10;;;29.66;45.36
57900;BME280;60605;53.716;19.940;2023-09-08T11:46:48;101106.98;;;29.57;46.14
57900;BME280;60605;53.716;19.940;2023-09-08T11:51:51;101109.41;;;29.54;46.06
57900;BME280;60605;53.716;19.940;2023-09-08T11:56:53;101103.55;;;29.41;46.35
57900;BME280;60605;53.716;19.940;2023-09-08T12:01:56;101100.36;;;29.26;46.64
57900;BME280;60605;53.716;19.940;2023-09-08T12:06:59;101090.93;;;29.20;47.06
57900;BME280;60605;53.716;19.940;2023-09-08T12:12:02;101086.67;;;29.17;47.37
57900;BME280;60605;53.716;19.940;2023-09-08T12:17:05;101082.48;;;29.21;48.05
57900;BME280;60605;53.716;19.940;2023-09-08T12:22:10;101078.55;;;29.17;47.89
57900;BME280;60605;53.716;19.940;2023-09-08T12:27:15;101075.70;;;29.03;47.98
57900;BME280;60605;53.716;19.940;2023-09-08T12:32:18;101072.70;;;28.92;47.78
57900;BME280;60605;53.716;19.940;2023-09-08T12:37:23;101065.25;;;28.85;47.03
57900;BME280;60605;53.716;19.940;2023-09-08T12:42:25;101057.52;;;28.78;47.11
57900;BME280;60605;53.716;19.940;2023-09-08T12:47:28;101052.16;;;28.64;47.30
57900;BME280;60605;53.716;19.940;2023-09-08T12:52:30;101045.82;;;28.48;46.60
57900;BME280;60605;53.716;19.940;2023-09-08T12:57:35;101041.55;;;28.45;47.33
57900;BME280;60605;53.716;19.940;2023-09-08T13:02:37;101038.83;;;28.44;47.58
57900;BME280;60605;53.716;19.940;2023-09-08T13:07:40;101036.91;;;28.40;48.11
57900;BME280;60605;53.716;19.940;2023-09-08T13:12:45;101032.55;;;28.39;48.03
57900;BME280;60605;53.716;19.940;2023-09-08T13:17:48;101030.55;;;28.31;47.87
57900;BME280;60605;53.716;19.940;2023-09-08T13:22:50;101025.14;;;28.27;48.01
57900;BME280;60605;53.716;19.940;2023-09-08T13:27:52;101016.45;;;28.22;47.94
57900;BME280;60605;53.716;19.940;2023-09-08T13:32:54;101011.79;;;28.18;47.94
57900;BME280;60605;53.716;19.940;2023-09-08T13:37:57;101009.98;;;28.12;48.37
57900;BME280;60605;53.716;19.940;2023-09-08T13:43:02;101010.96;;;28.03;48.60
57900;BME280;60605;53.716;19.940;2023-09-08T13:48:04;101004.67;;;27.97;48.82
57900;BME280;60605;53.716;19.940;2023-09-08T13:53:08;100999.77;;;27.93;48.59
57900;BME280;60605;53.716;19.940;2023-09-08T13:58:11;100996.83;;;27.90;48.91
57900;BME280;60605;53.716;19.940;2023-09-08T14:03:14;100992.56;;;27.89;49.36
57900;BME280;60605;53.716;19.940;2023-09-08T14:08:23;100993.24;;;27.79;49.97
57900;BME280;60605;53.716;19.940;2023-09-08T14:13:28;100989.91;;;27.72;50.53
57900;BME280;60605;53.716;19.940;2023-09-08T14:18:30;100981.01;;;27.67;50.43
57900;BME280;60605;53.716;19.940;2023-09-08T14:23:33;100980.27;;;27.61;50.63
57900;BME280;60605;53.716;19.940;2023-09-08T14:28:36;100981.66;;;27.51;51.37
57900;BME280;60605;53.716;19.940;2023-09-08T14:33:38;100979.34;;;27.41;51.57
57900;BME280;60605;53.716;19.940;2023-09-08T14:38:40;100977.66;;;27.32;51.85
57900;BME280;60605;53.716;19.940;2023-09-08T14:43:42;100974.11;;;27.22;52.08
57900;BME280;60605;53.716;19.940;2023-09-08T14:48:44;100968.77;;;27.14;52.48
57900;BME280;60605;53.716;19.940;2023-09-08T14:53:46;100969.58;;;27.05;52.76
57900;BME280;60605;53.716;19.940;2023-09-08T14:58:49;100967.89;;;26.96;52.57
57900;BME280;60605;53.716;19.940;2023-09-08T15:03:51;100968.10;;;26.88;52.23
57900;BME280;60605;53.716;19.940;2023-09-08T15:08:53;100965.88;;;26.76;52.97
57900;BME280;60605;53.716;19.940;2023-09-08T15:13:55;100965.34;;;26.64;53.02
57900;BME280;60605;53.716;19.940;2023-09-08T15:18:58;100966.35;;;26.54;52.59
57900;BME280;60605;53.716;19.940;2023-09-08T15:24:00;100970.15;;;26.45;52.37
57900;BME280;60605;53.716;19.940;2023-09-08T15:29:03;100967.64;;;26.38;52.22
57900;BME280;60605;53.716;19.940;2023-09-08T15:34:07;100965.40;;;26.31;52.77
57900;BME280;60605;53.716;19.940;2023-09-08T15:39:09;100959.23;;;26.24;53.32
57900;BME280;60605;53.716;19.940;2023-09-08T15:44:11;100954.17;;;26.13;54.14
57900;BME280;60605;53.716;19.940;2023-09-08T15:49:13;100952.90;;;26.00;54.85
57900;BME280;60605;53.716;19.940;2023-09-08T15:54:15;100952.86;;;25.87;55.70
57900;BME280;60605;53.716;19.940;2023-09-08T15:59:18;100952.23;;;25.71;56.43
57900;BME280;60605;53.716;19.940;2023-09-08T16:04:20;100954.85;;;25.57;57.01
57900;BME280;60605;53.716;19.940;2023-09-08T16:09:22;100953.22;;;25.41;57.53
57900;BME280;60605;53.716;19.940;2023-09-08T16:14:25;100950.37;;;25.25;57.99
57900;BME280;60605;53.716;19.940;2023-09-08T16:19:27;100946.34;;;25.07;58.58
57900;BME280;60605;53.716;19.940;2023-09-08T16:24:31;100946.24;;;24.90;58.83
57900;BME280;60605;53.716;19.940;2023-09-08T16:29:34;100945.66;;;24.72;59.10
57900;BME280;60605;53.716;19.940;2023-09-08T16:34:36;100941.45;;;24.53;59.77
57900;BME280;60605;53.716;19.940;2023-09-08T16:39:38;100941.27;;;24.33;60.39
57900;BME280;60605;53.716;19.940;2023-09-08T16:44:41;100936.80;;;24.13;60.92
57900;BME280;60605;53.716;19.940;2023-09-08T16:49:46;100936.48;;;23.89;61.66
57900;BME280;60605;53.716;19.940;2023-09-08T16:54:49;100937.08;;;23.61;62.49
57900;BME280;60605;53.716;19.940;2023-09-08T16:59:52;100942.95;;;23.35;63.30
57900;BME280;60605;53.716;19.940;2023-09-08T17:04:54;100948.36;;;23.09;64.09
57900;BME280;60605;53.716;19.940;2023-09-08T17:09:56;100945.10;;;22.83;64.74
57900;BME280;60605;53.716;19.940;2023-09-08T17:14:59;100946.46;;;22.57;65.52
57900;BME280;60605;53.716;19.940;2023-09-08T17:20:01;100948.35;;;22.31;66.33
57900;BME280;60605;53.716;19.940;2023-09-08T17:25:05;100952.48;;;22.06;67.27
57900;BME280;60605;53.716;19.940;2023-09-08T17:30:09;100948.90;;;21.79;67.96
57900;BME280;60605;53.716;19.940;2023-09-08T17:35:12;100950.47;;;21.55;68.90
57900;BME280;60605;53.716;19.940;2023-09-08T17:40:14;100955.69;;;21.31;69.44
57900;BME280;60605;53.716;19.940;2023-09-08T17:45:16;100960.56;;;21.10;70.10
57900;BME280;60605;53.716;19.940;2023-09-08T17:50:18;100965.19;;;20.90;70.65
57900;BME280;60605;53.716;19.940;2023-09-08T17:55:20;100962.73;;;20.70;71.49
57900;BME280;60605;53.716;19.940;2023-09-08T18:00:22;100964.10;;;20.51;72.32
57900;BME280;60605;53.716;19.940;2023-09-08T18:05:24;100963.55;;;20.27;73.40
57900;BME280;60605;53.716;19.940;2023-09-08T18:10:27;100964.58;;;20.02;74.33
57900;BME280;60605;53.716;19.940;2023-09-08T18:15:30;100967.32;;;19.79;75.23
57900;BME280;60605;53.716;19.940;2023-09-08T18:20:35;100968.09;;;19.54;76.34
57900;BME280;60605;53.716;19.940;2023-09-08T18:25:37;100967.50;;;19.30;77.40
57900;BME280;60605;53.716;19.940;2023-09-08T18:30:44;100968.70;;;19.10;78.44
57900;BME280;60605;53.716;19.940;2023-09-08T18:35:46;100962.16;;;18.96;79.44
57900;BME280;60605;53.716;19.940;2023-09-08T18:40:48;100963.13;;;18.84;79.95
57900;BME280;60605;53.716;19.940;2023-09-08T18:45:50;100964.57;;;18.70;80.56
57900;BME280;60605;53.716;19.940;2023-09-08T18:50:52;100967.92;;;18.56;81.68
57900;BME280;60605;53.716;19.940;2023-09-08T18:55:55;100969.27;;;18.41;82.50
57900;BME280;60605;53.716;19.940;2023-09-08T19:01:01;100963.84;;;18.24;83.27
57900;BME280;60605;53.716;19.940;2023-09-08T19:06:04;100959.52;;;18.07;83.86
57900;BME280;60605;53.716;19.940;2023-09-08T19:11:06;100956.61;;;17.90;84.60
57900;BME280;60605;53.716;19.940;2023-09-08T19:16:09;100954.54;;;17.75;85.35
57900;BME280;60605;53.716;19.940;2023-09-08T19:21:11;100948.90;;;17.59;86.04
57900;BME280;60605;53.716;19.940;2023-09-08T19:26:15;100947.50;;;17.44;87.11
57900;BME280;60605;53.716;19.940;2023-09-08T19:31:17;100949.55;;;17.31;88.01
57900;BME280;60605;53.716;19.940;2023-09-08T19:36:20;100946.89;;;17.20;89.06
57900;BME280;60605;53.716;19.940;2023-09-08T19:41:22;100948.48;;;17.10;89.56
57900;BME280;60605;53.716;19.940;2023-09-08T19:46:26;100947.59;;;17.02;90.39
57900;BME280;60605;53.716;19.940;2023-09-08T19:51:30;100942.52;;;16.93;90.88
57900;BME280;60605;53.716;19.940;2023-09-08T19:56:32;100941.34;;;16.86;92.01
57900;BME280;60605;53.716;19.940;2023-09-08T20:01:35;100942.14;;;16.81;92.68
57900;BME280;60605;53.716;19.940;2023-09-08T20:06:38;100937.85;;;16.73;93.30
57900;BME280;60605;53.716;19.940;2023-09-08T20:11:41;100935.86;;;16.68;94.25
57900;BME280;60605;53.716;19.940;2023-09-08T20:16:44;100940.23;;;16.60;94.08
57900;BME280;60605;53.716;19.940;2023-09-08T20:21:46;100943.77;;;16.48;94.47
57900;BME280;60605;53.716;19.940;2023-09-08T20:26:48;100943.21;;;16.37;95.20
57900;BME280;60605;53.716;19.940;2023-09-08T20:31:52;100936.85;;;16.25;95.47
57900;BME280;60605;53.716;19.940;2023-09-08T20:36:57;100934.77;;;16.15;96.37
57900;BME280;60605;53.716;19.940;2023-09-08T20:41:59;100940.63;;;16.05;96.79
57900;BME280;60605;53.716;19.940;2023-09-08T20:47:02;100942.73;;;15.94;97.05
57900;BME280;60605;53.716;19.940;2023-09-08T20:52:04;100943.80;;;15.83;97.42
57900;BME280;60605;53.716;19.940;2023-09-08T20:57:06;100945.75;;;15.75;98.59
57900;BME280;60605;53.716;19.940;2023-09-08T21:02:08;100943.96;;;15.67;98.71
57900;BME280;60605;53.716;19.940;2023-09-08T21:07:10;100946.09;;;15.61;99.32
57900;BME280;60605;53.716;19.940;2023-09-08T21:12:12;100941.73;;;15.56;99.90
57900;BME280;60605;53.716;19.940;2023-09-08T21:17:15;100936.25;;;15.52;100.00
57900;BME280;60605;53.716;19.940;2023-09-08T21:22:17;100937.23;;;15.50;100.00
57900;BME280;60605;53.716;19.940;2023-09-08T21:27:18;100934.99;;;15.47;100.00
57900;BME280;60605;53.716;19.940;2023-09-08T21:32:22;100936.38;;;15.48;100.00
57900;BME280;60605;53.716;19.940;2023-09-08T21:37:25;100942.29;;;15.50;100.00
57900;BME280;60605;53.716;19.940;2023-09-08T21:42:27;100932.55;;;15.50;100.00
57900;BME280;60605;53.716;19.940;2023-09-08T21:47:29;100928.56;;;15.50;100.00
57900;BME280;60605;53.716;19.940;2023-09-08T21:52:31;100932.23;;;15.49;100.00
57900;BME280;60605;53.716;19.940;2023-09-08T21:57:40;100931.92;;;15.47;100.00
57900;BME280;60605;53.716;19.940;2023-09-08T22:02:43;100931.79;;;15.44;100.00
57900;BME280;60605;53.716;19.940;2023-09-08T22:07:45;100932.73;;;15.40;100.00
57900;BME280;60605;53.716;19.940;2023-09-08T22:12:47;100935.80;;;15.37;100.00
57900;BME280;60605;53.716;19.940;2023-09-08T22:17:49;100933.52;;;15.31;100.00
57900;BME280;60605;53.716;19.940;2023-09-08T22:22:52;100935.43;;;15.25;100.00
57900;BME280;60605;53.716;19.940;2023-09-08T22:27:54;100930.00;;;15.17;100.00
57900;BME280;60605;53.716;19.940;2023-09-08T22:33:00;100931.20;;;15.08;100.00
57900;BME280;60605;53.716;19.940;2023-09-08T22:38:02;100940.14;;;14.99;100.00
57900;BME280;60605;53.716;19.940;2023-09-08T22:43:05;100944.98;;;14.90;100.00
57900;BME280;60605;53.716;19.940;2023-09-08T22:48:06;100942.34;;;14.87;100.00
57900;BME280;60605;53.716;19.940;2023-09-08T22:53:08;100944.45;;;14.84;100.00
57900;BME280;60605;53.716;19.940;2023-09-08T22:58:14;100944.26;;;14.81;100.00
57900;BME280;60605;53.716;19.940;2023-09-08T23:03:17;100946.15;;;14.77;100.00
57900;BME280;60605;53.716;19.940;2023-09-08T23:08:19;100945.63;;;14.72;100.00
57900;BME280;60605;53.716;19.940;2023-09-08T23:13:22;100940.95;;;14.66;100.00
57900;BME280;60605;53.716;19.940;2023-09-08T23:18:24;100944.52;;;14.65;100.00
57900;BME280;60605;53.716;19.940;2023-09-08T23:23:26;100946.04;;;14.64;100.00
57900;BME280;60605;53.716;19.940;2023-09-08T23:28:27;100944.90;;;14.61;100.00
57900;BME280;60605;53.716;19.940;2023-09-08T23:33:30;100946.60;;;14.57;100.00
57900;BME280;60605;53.716;19.940;2023-09-08T23:38:34;100948.53;;;14.58;100.00
57900;BME280;60605;53.716;19.940;2023-09-08T23:43:36;100948.55;;;14.61;100.00
57900;BME280;60605;53.716;19.940;2023-09-08T23:48:39;100947.38;;;14.63;100.00
57900;BME280;60605;53.716;19.940;2023-09-08T23:53:40;100948.98;;;14.62;100.00
57900;BME280;60605;53.716;19.940;2023-09-08T23:58:42;100949.16;;;14.57;100.00
